Soldotna, AK (99669)

8:58 AM AKST on December 10, 2016 (GMT -0900)
W. Corral PWS | | Change Station

Elev 110 ft 60.49 °N, 151.08 °W | Updated 4 seconds ago

Clear
Clear
-2.7 °F
Feels Like -10 °F
N
3.1
Wind Variable Wind from SW
Gusts 3.8 mph

Today
High -- | Low -- °F
--% Chance of Precip.
Yesterday
High -- | Low -- °F
Precip. -- in
Pressure 30.21 in
Visibility 10.0 miles
Clouds Clear
Windchill -10 °F
Dew Point -5 °F
Humidity 91%
Rainfall 0.00 in
Snow Depth Not available.
10:00 AM 3:53 PM
Waxing Gibbous, 85% visible
METAR PASX 101756Z AUTO 06005KT 10SM CLR M20/M34 A3021 RMK AO1 11180 21230 52020
Pressure 30.21 in
Visibility 10.0 miles
Clouds Clear
Windchill -10 °F
Dew Point -5 °F
Humidity 91%
Rainfall 0.00 in
Snow Depth Not available.
10:00 AM 3:53 PM
Waxing Gibbous, 85% visible
METAR PASX 101756Z AUTO 06005KT 10SM CLR M20/M34 A3021 RMK AO1 11180 21230 52020

10-Day Weather Forecast

Almanac

Astronomy

Dec. 10, 2016 Rise Set
Actual Time
Civil Twilight
Nautical Twilight
Astronomical Twilight
Moon
Length of Visible Light
Length of Day
Tomorrow will be .
, % of the Moon is Illuminated

Today's Extremes

State Highs State Lows

Community

WunderPhotos

Upload Photos

1,956,591 photos uploaded!

WunderBlog® & News

Nearby

Air Quality

  Air Quality AQ Index Pollutant
Not available.

Snow Depth

Station Depth Elevation

Earthquake Activity

City Distance Mag. Time & Date
Minimum magnitude displayed is 2.5.

Coastal Water Temperatures

Place Temperature

Stations

Nearby Weather Stations

Station Location Temp. Windchill Dew Point Humidity Wind Precip. Elev Updated Type
                   

Watches & Warnings

There are currently no watches in effect.